createdAt,value
2023-01-20T00:01:21.115Z,25.47
2023-01-20T00:03:48.468Z,22.97
2023-01-20T00:06:15.708Z,22.90
2023-01-20T00:08:42.947Z,27.70
2023-01-20T00:11:10.872Z,28.07
2023-01-20T00:13:38.079Z,34.70
2023-01-20T00:16:05.875Z,36.87
2023-01-20T00:18:33.459Z,38.00
2023-01-20T00:21:07.310Z,41.40
2023-01-20T00:23:34.502Z,38.97
2023-01-20T00:26:08.457Z,35.10
2023-01-20T00:28:35.677Z,35.97
2023-01-20T00:31:10.662Z,34.73
2023-01-20T00:33:37.861Z,40.43
2023-01-20T00:36:05.201Z,48.73
2023-01-20T00:38:32.397Z,57.70
2023-01-20T00:40:59.585Z,54.87
2023-01-20T00:43:26.828Z,54.77
2023-01-20T00:45:53.991Z,53.87
2023-01-20T00:48:21.194Z,51.23
2023-01-20T00:50:48.422Z,49.27
2023-01-20T00:53:15.602Z,49.63
2023-01-20T00:55:42.736Z,49.37
2023-01-20T00:58:09.976Z,47.80
2023-01-20T01:00:37.301Z,46.50
2023-01-20T01:03:05.627Z,46.10
2023-01-20T01:05:33.098Z,45.60
2023-01-20T01:08:00.381Z,56.27
2023-01-20T01:10:27.543Z,58.33
2023-01-20T01:12:54.726Z,55.93
2023-01-20T01:15:21.960Z,51.03
2023-01-20T01:17:49.153Z,51.17
2023-01-20T01:20:16.353Z,42.80
2023-01-20T01:22:43.549Z,38.07
2023-01-20T01:25:10.759Z,35.57
2023-01-20T01:27:37.978Z,28.90
2023-01-20T01:30:05.389Z,29.97
2023-01-20T01:32:32.552Z,34.33
2023-01-20T01:34:59.717Z,38.37
2023-01-20T01:37:27.954Z,41.43
2023-01-20T01:39:55.111Z,43.63
2023-01-20T01:42:23.883Z,44.57
2023-01-20T01:45:09.536Z,43.90
2023-01-20T01:47:55.549Z,44.40
2023-01-20T01:50:24.866Z,40.30
2023-01-20T01:52:52.539Z,39.43
2023-01-20T01:55:19.946Z,39.97
2023-01-20T01:57:47.714Z,37.70
2023-01-20T02:00:14.984Z,40.20
2023-01-20T02:02:43.520Z,38.73
2023-01-20T02:05:11.197Z,44.53
2023-01-20T02:07:38.393Z,34.80
2023-01-20T02:10:05.797Z,40.67
2023-01-20T02:12:33.033Z,42.37
2023-01-20T02:15:00.388Z,42.30
2023-01-20T02:17:33.570Z,42.77
2023-01-20T02:20:08.415Z,44.43
2023-01-20T02:22:38.787Z,36.87
2023-01-20T02:25:24.401Z,36.80
2023-01-20T02:28:00.738Z,40.20
2023-01-20T02:30:27.948Z,40.50
2023-01-20T02:33:04.261Z,40.63
2023-01-20T02:35:45.616Z,42.83
2023-01-20T02:38:36.147Z,42.00
2023-01-20T02:41:06.429Z,40.83
2023-01-20T02:43:33.596Z,39.73
2023-01-20T02:46:02.778Z,38.90
2023-01-20T02:48:29.952Z,40.03
2023-01-20T02:51:00.137Z,37.53
2023-01-20T02:53:27.478Z,37.73
2023-01-20T02:55:54.628Z,38.80
2023-01-20T02:58:26.708Z,39.97
2023-01-20T03:00:54.848Z,34.93
2023-01-20T03:03:26.122Z,38.90
2023-01-20T03:05:54.401Z,35.17
2023-01-20T03:08:21.652Z,33.87
2023-01-20T03:10:48.915Z,33.13
2023-01-20T03:13:16.093Z,31.47
2023-01-20T03:15:48.265Z,31.07
2023-01-20T03:18:15.409Z,34.57
2023-01-20T03:20:42.548Z,35.87
2023-01-20T03:23:10.086Z,35.97
2023-01-20T03:25:39.045Z,37.47
2023-01-20T03:28:06.204Z,35.20
2023-01-20T03:30:33.563Z,32.07
2023-01-20T03:33:00.764Z,29.93
2023-01-20T03:35:27.905Z,27.73
2023-01-20T03:37:55.076Z,36.80
2023-01-20T03:40:22.226Z,39.60
2023-01-20T03:43:09.218Z,34.17
2023-01-20T03:45:43.672Z,33.77
2023-01-20T03:48:14.565Z,27.60
2023-01-20T03:50:43.871Z,29.17
2023-01-20T03:53:11.009Z,31.90
2023-01-20T03:55:44.965Z,32.87
2023-01-20T03:58:16.348Z,33.50
2023-01-20T04:00:44.203Z,35.53
2023-01-20T04:03:13.635Z,29.23
2023-01-20T04:05:40.792Z,26.80
2023-01-20T04:08:08.439Z,30.10
2023-01-20T04:10:36.068Z,29.07
2023-01-20T04:13:03.204Z,29.47
2023-01-20T04:15:32.936Z,29.57
2023-01-20T04:18:10.717Z,25.63
2023-01-20T04:20:37.841Z,26.20
2023-01-20T04:23:04.973Z,25.20
2023-01-20T04:25:32.538Z,25.67
2023-01-20T04:27:59.703Z,26.37
2023-01-20T04:30:26.896Z,24.17
2023-01-20T04:32:54.305Z,24.47
2023-01-20T04:35:21.513Z,25.60
2023-01-20T04:37:48.635Z,27.67
2023-01-20T04:40:15.899Z,29.40
2023-01-20T04:42:43.122Z,26.30
2023-01-20T04:45:10.713Z,24.30
2023-01-20T04:47:37.950Z,24.83
2023-01-20T04:50:05.215Z,26.43
2023-01-20T04:52:32.358Z,27.20
2023-01-20T04:54:59.622Z,26.23
2023-01-20T04:57:26.762Z,28.50
2023-01-20T04:59:53.899Z,25.47
2023-01-20T05:02:21.194Z,25.17
2023-01-20T05:04:48.450Z,21.40
2023-01-20T05:07:15.637Z,27.00
2023-01-20T05:09:42.809Z,27.33
2023-01-20T05:12:09.961Z,29.43
2023-01-20T05:14:37.119Z,28.97
2023-01-20T05:17:04.309Z,27.43
2023-01-20T05:19:31.451Z,26.80
2023-01-20T05:22:00.246Z,24.00
2023-01-20T05:24:27.427Z,22.70
2023-01-20T05:26:54.618Z,21.90
2023-01-20T05:29:21.750Z,23.83
2023-01-20T05:31:48.999Z,22.40
2023-01-20T05:34:16.516Z,31.03
2023-01-20T05:36:43.669Z,30.33
2023-01-20T05:39:10.831Z,29.83
2023-01-20T05:41:38.013Z,26.10
2023-01-20T05:44:05.203Z,23.07
2023-01-20T05:46:32.403Z,22.10
2023-01-20T05:48:59.575Z,22.53
2023-01-20T05:51:26.708Z,21.13
2023-01-20T05:53:53.900Z,25.73
2023-01-20T05:56:21.046Z,26.37
2023-01-20T05:58:48.219Z,24.20
2023-01-20T06:01:15.766Z,24.53
2023-01-20T06:03:43.113Z,22.70
2023-01-20T06:06:15.462Z,22.70
2023-01-20T06:08:42.805Z,23.90
2023-01-20T06:11:09.955Z,22.90
2023-01-20T06:13:39.232Z,23.57
2023-01-20T06:16:07.507Z,22.30
2023-01-20T06:18:34.807Z,20.87
2023-01-20T06:21:01.991Z,23.40
2023-01-20T06:23:29.183Z,23.47
2023-01-20T06:26:06.515Z,22.23
2023-01-20T06:28:33.726Z,22.17
2023-01-20T06:31:01.660Z,22.13
2023-01-20T06:33:28.909Z,22.33
2023-01-20T06:35:56.535Z,23.43
2023-01-20T06:38:24.172Z,24.30
2023-01-20T06:40:51.354Z,27.73
2023-01-20T06:43:18.495Z,28.10
2023-01-20T06:45:45.618Z,28.70
2023-01-20T06:48:12.739Z,37.73
2023-01-20T06:50:39.898Z,31.00
2023-01-20T06:53:07.043Z,27.83
2023-01-20T06:55:34.221Z,24.10
2023-01-20T06:58:01.367Z,25.50
2023-01-20T07:00:28.689Z,24.93
2023-01-20T07:02:55.837Z,26.13
2023-01-20T07:05:23.021Z,24.93
2023-01-20T07:07:50.142Z,23.90
2023-01-20T07:10:17.294Z,25.90
2023-01-20T07:12:44.453Z,24.17
2023-01-20T07:15:11.798Z,25.33
2023-01-20T07:17:39.004Z,29.60
2023-01-20T07:20:06.348Z,31.70
2023-01-20T07:22:33.519Z,33.27
2023-01-20T07:25:00.677Z,32.47
2023-01-20T07:27:27.864Z,27.43
2023-01-20T07:29:55.003Z,32.30
2023-01-20T07:32:22.196Z,30.93
2023-01-20T07:34:50.278Z,28.77
2023-01-20T07:37:17.503Z,30.00
2023-01-20T07:39:44.622Z,29.00
2023-01-20T07:42:11.794Z,28.30
2023-01-20T07:44:38.942Z,31.20
2023-01-20T07:47:06.082Z,35.53
2023-01-20T07:49:33.241Z,30.13
2023-01-20T07:52:00.373Z,30.37
2023-01-20T07:54:27.503Z,30.00
2023-01-20T07:56:54.670Z,32.37
2023-01-20T07:59:21.878Z,29.13
2023-01-20T08:01:50.459Z,28.10
2023-01-20T08:04:18.112Z,30.57
2023-01-20T08:06:45.230Z,35.77
2023-01-20T08:09:14.684Z,31.37
2023-01-20T08:11:41.901Z,29.37
2023-01-20T08:14:09.051Z,34.13
2023-01-20T08:16:36.349Z,27.17
2023-01-20T08:19:03.561Z,32.13
2023-01-20T08:21:31.536Z,40.97
2023-01-20T08:23:59.390Z,39.33
2023-01-20T08:26:27.856Z,29.47
2023-01-20T08:28:55.801Z,23.47
2023-01-20T08:31:24.000Z,26.53
2023-01-20T08:33:54.755Z,30.40
2023-01-20T08:36:22.884Z,24.47
2023-01-20T08:38:50.548Z,23.33
2023-01-20T08:41:21.799Z,22.73
2023-01-20T08:43:48.947Z,23.60
2023-01-20T08:46:16.716Z,25.67
2023-01-20T08:48:44.011Z,27.07
2023-01-20T08:51:14.032Z,28.20
2023-01-20T08:53:41.464Z,23.10
2023-01-20T08:56:08.717Z,22.00
2023-01-20T08:58:35.887Z,24.40
2023-01-20T09:01:03.094Z,28.73
2023-01-20T09:03:32.300Z,29.37
2023-01-20T09:06:02.280Z,31.37
2023-01-20T09:08:29.627Z,27.30
2023-01-20T09:11:02.360Z,27.77
2023-01-20T09:13:29.548Z,30.00
2023-01-20T09:15:56.762Z,31.23
2023-01-20T09:18:24.086Z,28.90
2023-01-20T09:20:51.242Z,27.23
2023-01-20T09:23:18.465Z,30.77
2023-01-20T09:25:45.667Z,23.77
2023-01-20T09:28:14.203Z,23.73
2023-01-20T09:30:42.760Z,29.37
2023-01-20T09:33:13.025Z,23.70
2023-01-20T09:35:40.326Z,24.57
2023-01-20T09:38:26.086Z,24.70
2023-01-20T09:41:20.436Z,24.87
2023-01-20T09:43:56.229Z,26.03
2023-01-20T09:47:14.012Z,26.47
2023-01-20T09:50:18.524Z,29.83
2023-01-20T09:53:04.735Z,28.10
2023-01-20T09:55:41.103Z,24.20
2023-01-20T09:58:14.157Z,22.47
2023-01-20T10:00:41.747Z,23.57
2023-01-20T10:03:37.180Z,25.37
2023-01-20T10:06:12.418Z,23.97
2023-01-20T10:09:04.230Z,28.80
2023-01-20T10:11:33.941Z,24.93
2023-01-20T10:14:07.097Z,22.07
2023-01-20T10:16:37.528Z,32.23
2023-01-20T10:19:11.396Z,26.90
2023-01-20T10:21:43.146Z,30.10
2023-01-20T10:24:10.309Z,32.57
2023-01-20T10:26:47.774Z,28.90
2023-01-20T10:29:16.784Z,31.47
2023-01-20T10:31:45.867Z,34.03
2023-01-20T10:34:18.914Z,35.10
2023-01-20T10:36:47.528Z,31.90
2023-01-20T10:39:21.967Z,23.47
2023-01-20T10:42:03.534Z,24.07
2023-01-20T10:44:30.724Z,27.53
2023-01-20T10:47:04.160Z,34.17
2023-01-20T10:49:35.315Z,25.17
2023-01-20T10:52:15.251Z,26.60
2023-01-20T10:54:48.644Z,30.03
2023-01-20T10:57:16.203Z,20.10
2023-01-20T10:59:43.342Z,17.70
2023-01-20T11:02:30.531Z,20.83
2023-01-20T11:04:57.811Z,133.80
2023-01-20T11:07:24.980Z,87.37
2023-01-20T11:09:52.146Z,51.17
2023-01-20T11:12:20.811Z,34.77
2023-01-20T11:14:48.004Z,48.13
2023-01-20T11:17:16.373Z,36.40
2023-01-20T11:19:53.898Z,33.97
2023-01-20T11:22:27.014Z,41.80
2023-01-20T11:24:55.054Z,36.73
2023-01-20T11:27:23.173Z,34.53
2023-01-20T11:30:04.584Z,32.33
2023-01-20T11:32:31.766Z,28.87
2023-01-20T11:34:59.060Z,35.67
2023-01-20T11:37:26.936Z,30.43
2023-01-20T11:39:54.103Z,29.53
2023-01-20T11:42:22.166Z,31.57
2023-01-20T11:45:21.325Z,30.73
2023-01-20T11:47:59.416Z,29.97
2023-01-20T11:50:33.480Z,30.87
2023-01-20T11:53:20.048Z,32.13
2023-01-20T11:56:07.508Z,30.60
2023-01-20T11:58:35.270Z,32.27
2023-01-20T12:01:03.605Z,32.93
2023-01-20T12:03:42.215Z,38.30
2023-01-20T12:06:20.051Z,36.63
2023-01-20T12:09:07.545Z,34.00
2023-01-20T12:11:35.714Z,80.77
2023-01-20T12:14:23.349Z,67.03
2023-01-20T12:17:09.445Z,53.53
2023-01-20T12:19:39.314Z,69.60
2023-01-20T12:22:10.404Z,149.00
2023-01-20T12:25:06.196Z,67.70
2023-01-20T12:27:33.384Z,72.73
2023-01-20T12:30:01.211Z,77.77
2023-01-20T12:32:29.279Z,56.97
2023-01-20T12:34:56.418Z,113.07
2023-01-20T12:37:32.674Z,76.70
2023-01-20T12:40:08.999Z,70.33
2023-01-20T12:42:42.043Z,100.57
2023-01-20T12:45:21.224Z,83.70
2023-01-20T12:47:51.233Z,71.83
2023-01-20T12:50:18.727Z,96.63
2023-01-20T12:53:04.803Z,75.23
2023-01-20T12:55:35.000Z,67.27
2023-01-20T12:58:14.067Z,49.00
2023-01-20T13:00:41.245Z,36.87
2023-01-20T13:03:27.140Z,36.13
2023-01-20T13:06:13.001Z,42.20
2023-01-20T13:08:40.147Z,39.83
2023-01-20T13:11:10.457Z,48.03
2023-01-20T13:13:57.035Z,56.53
2023-01-20T13:16:30.175Z,45.63
2023-01-20T13:19:03.719Z,42.20
2023-01-20T13:21:31.679Z,52.53
2023-01-20T13:23:59.531Z,52.60
2023-01-20T13:26:27.685Z,56.17
2023-01-20T13:28:55.494Z,49.43
2023-01-20T13:31:33.333Z,57.20
2023-01-20T13:34:20.539Z,44.93
2023-01-20T13:37:03.378Z,38.70
2023-01-20T13:39:31.314Z,47.23
2023-01-20T13:41:58.452Z,43.13
2023-01-20T13:44:35.598Z,44.30
2023-01-20T13:47:03.094Z,32.77
2023-01-20T13:49:44.411Z,33.07
2023-01-20T13:52:12.056Z,33.90
2023-01-20T13:54:42.686Z,39.67
2023-01-20T13:57:30.615Z,47.07
2023-01-20T13:59:57.776Z,45.77
2023-01-20T14:02:28.478Z,52.87
2023-01-20T14:04:56.289Z,46.77
2023-01-20T14:07:23.543Z,44.70
2023-01-20T14:10:11.446Z,48.50
2023-01-20T14:12:41.926Z,42.20
2023-01-20T14:15:23.155Z,39.50
2023-01-20T14:17:54.740Z,37.83
2023-01-20T14:20:23.706Z,43.63
2023-01-20T14:22:50.914Z,52.07
2023-01-20T14:25:25.204Z,37.23
2023-01-20T14:27:52.503Z,44.77
2023-01-20T14:30:26.883Z,55.17
2023-01-20T14:32:54.135Z,54.53
2023-01-20T14:35:28.039Z,43.33
2023-01-20T14:37:55.256Z,42.53
2023-01-20T14:40:24.188Z,59.40
2023-01-20T14:43:01.352Z,68.50
2023-01-20T14:45:29.369Z,64.97
2023-01-20T14:47:57.397Z,40.13
2023-01-20T14:50:24.681Z,45.87
2023-01-20T14:52:51.914Z,43.23
2023-01-20T14:55:32.352Z,42.00
2023-01-20T14:57:59.656Z,39.10
2023-01-20T15:00:27.627Z,42.20
2023-01-20T15:03:10.145Z,51.43
2023-01-20T15:05:38.673Z,40.80
2023-01-20T15:08:12.085Z,33.43
2023-01-20T15:10:39.727Z,39.00
2023-01-20T15:13:23.591Z,43.10
2023-01-20T15:15:50.743Z,47.13
2023-01-20T15:18:21.929Z,45.73
2023-01-20T15:21:15.703Z,42.87
2023-01-20T15:23:45.795Z,55.50
2023-01-20T15:26:19.063Z,46.33
2023-01-20T15:28:46.203Z,59.90
2023-01-20T15:31:14.367Z,47.47
2023-01-20T15:33:41.694Z,41.87
2023-01-20T15:36:22.495Z,35.57
2023-01-20T15:38:49.798Z,25.77
2023-01-20T15:41:17.057Z,27.57
2023-01-20T15:43:45.548Z,31.07
2023-01-20T15:46:13.310Z,23.13
2023-01-20T15:48:40.645Z,28.73
2023-01-20T15:51:07.940Z,29.70
2023-01-20T15:53:35.392Z,58.90
2023-01-20T15:56:02.557Z,55.80
2023-01-20T15:58:30.769Z,73.27
2023-01-20T16:00:58.220Z,136.17
2023-01-20T16:03:25.464Z,144.17
2023-01-20T16:05:52.981Z,116.23
2023-01-20T16:08:20.982Z,132.27
2023-01-20T16:10:48.201Z,119.00
2023-01-20T16:13:15.433Z,91.23
2023-01-20T16:15:42.999Z,66.40
2023-01-20T16:18:14.493Z,120.40
2023-01-20T16:20:41.971Z,80.00
2023-01-20T16:23:09.177Z,54.13
2023-01-20T16:25:36.425Z,47.27
2023-01-20T16:28:06.034Z,52.77
2023-01-20T16:30:33.222Z,47.83
2023-01-20T16:33:00.377Z,69.07
2023-01-20T16:35:27.932Z,86.60
2023-01-20T16:37:55.337Z,37.90
2023-01-20T16:40:24.508Z,38.43
2023-01-20T16:42:51.698Z,31.07
2023-01-20T16:45:26.267Z,38.57
2023-01-20T16:47:53.604Z,34.30
2023-01-20T16:50:20.845Z,32.70
2023-01-20T16:52:48.139Z,33.27
2023-01-20T16:55:15.344Z,38.13
2023-01-20T16:57:43.337Z,32.47
2023-01-20T17:00:10.924Z,39.57
2023-01-20T17:02:39.079Z,36.90
2023-01-20T17:05:07.604Z,44.60
2023-01-20T17:07:34.824Z,50.67
2023-01-20T17:10:02.072Z,38.20
2023-01-20T17:12:29.207Z,45.20
2023-01-20T17:14:56.467Z,36.13
2023-01-20T17:17:23.647Z,40.27
2023-01-20T17:19:50.850Z,44.83
2023-01-20T17:22:18.235Z,36.93
2023-01-20T17:24:45.384Z,33.07
2023-01-20T17:27:12.582Z,21.23
2023-01-20T17:29:39.801Z,24.63
2023-01-20T17:32:06.946Z,33.97
2023-01-20T17:34:34.075Z,31.27
2023-01-20T17:37:01.253Z,21.33
2023-01-20T17:39:28.395Z,23.90
2023-01-20T17:41:55.560Z,33.23
2023-01-20T17:44:23.136Z,37.17
2023-01-20T17:46:50.602Z,31.77
2023-01-20T17:49:17.852Z,27.30
2023-01-20T17:51:45.312Z,29.80
2023-01-20T17:54:12.469Z,31.57
2023-01-20T17:56:39.623Z,22.90
2023-01-20T17:59:06.877Z,25.63
2023-01-20T18:01:34.653Z,26.53
2023-01-20T18:04:04.248Z,31.57
2023-01-20T18:06:35.103Z,29.43
2023-01-20T18:09:02.357Z,26.40
2023-01-20T18:11:33.178Z,27.23
2023-01-20T18:14:00.643Z,20.50
2023-01-20T18:16:28.727Z,24.73
2023-01-20T18:18:58.776Z,25.93
2023-01-20T18:21:27.028Z,24.50
2023-01-20T18:23:54.372Z,24.10
2023-01-20T18:26:22.307Z,29.37
2023-01-20T18:28:49.581Z,34.77
2023-01-20T18:31:17.926Z,28.23
2023-01-20T18:33:48.952Z,28.83
2023-01-20T18:36:17.797Z,25.97
2023-01-20T18:38:44.978Z,25.63
2023-01-20T18:41:12.179Z,31.20
2023-01-20T18:43:39.638Z,22.77
2023-01-20T18:46:06.948Z,39.37
2023-01-20T18:48:34.349Z,43.13
2023-01-20T18:51:01.916Z,49.07
2023-01-20T18:53:29.344Z,41.53
2023-01-20T18:56:02.931Z,40.77
2023-01-20T18:58:30.163Z,34.07
2023-01-20T19:01:07.312Z,38.37
2023-01-20T19:03:34.887Z,23.00
2023-01-20T19:06:05.149Z,33.37
2023-01-20T19:08:32.430Z,30.87
2023-01-20T19:11:00.651Z,30.13
2023-01-20T19:13:27.827Z,29.50
2023-01-20T19:15:55.070Z,27.50
2023-01-20T19:18:22.259Z,29.57
2023-01-20T19:20:49.388Z,30.73
2023-01-20T19:23:16.724Z,31.37
2023-01-20T19:25:43.873Z,29.90
2023-01-20T19:28:12.137Z,30.77
2023-01-20T19:30:39.322Z,31.70
2023-01-20T19:33:06.473Z,26.93
2023-01-20T19:35:34.712Z,29.40
2023-01-20T19:38:01.949Z,28.93
2023-01-20T19:40:29.165Z,21.17
2023-01-20T19:42:56.310Z,21.13
2023-01-20T19:45:25.462Z,21.80
2023-01-20T19:47:54.424Z,25.50
2023-01-20T19:50:21.547Z,16.17
2023-01-20T19:52:48.725Z,13.70
2023-01-20T19:55:15.886Z,18.50
2023-01-20T19:57:43.039Z,25.03
2023-01-20T20:00:10.802Z,22.67
2023-01-20T20:02:38.585Z,40.87
2023-01-20T20:05:06.535Z,43.90
2023-01-20T20:07:55.927Z,58.80
2023-01-20T20:10:23.108Z,53.30
2023-01-20T20:12:50.258Z,58.77
2023-01-20T20:15:17.519Z,64.50
2023-01-20T20:17:44.678Z,51.83
2023-01-20T20:20:11.869Z,59.33
2023-01-20T20:22:39.046Z,71.03
2023-01-20T20:25:09.343Z,72.10
2023-01-20T20:27:37.702Z,47.70
2023-01-20T20:30:07.175Z,25.60
2023-01-20T20:32:34.402Z,57.03
2023-01-20T20:35:01.559Z,68.13
2023-01-20T20:37:28.785Z,45.67
2023-01-20T20:39:55.933Z,40.40
2023-01-20T20:42:23.137Z,78.67
2023-01-20T20:44:50.307Z,39.20
2023-01-20T20:47:18.231Z,31.17
2023-01-20T20:49:45.498Z,47.83
2023-01-20T20:52:12.665Z,46.33
2023-01-20T20:54:39.836Z,33.57
2023-01-20T20:57:07.684Z,30.97
2023-01-20T20:59:34.958Z,23.70
2023-01-20T21:02:02.164Z,24.43
2023-01-20T21:04:30.701Z,15.33
2023-01-20T21:06:57.866Z,28.77
2023-01-20T21:09:26.190Z,24.90
2023-01-20T21:11:53.365Z,13.13
2023-01-20T21:14:23.024Z,20.23
2023-01-20T21:16:50.326Z,24.83
2023-01-20T21:19:17.528Z,31.00
2023-01-20T21:21:44.926Z,22.13
2023-01-20T21:24:13.955Z,19.17
2023-01-20T21:26:41.473Z,34.67
2023-01-20T21:29:10.246Z,26.13
2023-01-20T21:31:37.464Z,22.83
2023-01-20T21:34:04.686Z,19.60
2023-01-20T21:36:32.474Z,12.07
2023-01-20T21:38:59.818Z,12.40
2023-01-20T21:41:26.952Z,10.63
2023-01-20T21:44:13.011Z,10.00
2023-01-20T21:46:40.667Z,10.57
2023-01-20T21:49:27.367Z,12.03
2023-01-20T21:52:13.532Z,13.53
2023-01-20T21:54:41.455Z,17.50
2023-01-20T21:57:08.796Z,23.07
2023-01-20T21:59:35.966Z,18.13
2023-01-20T22:02:03.176Z,19.70
2023-01-20T22:04:30.384Z,17.97
2023-01-20T22:06:57.553Z,16.67
2023-01-20T22:09:24.739Z,21.47
2023-01-20T22:11:51.883Z,12.00
2023-01-20T22:14:19.058Z,16.70
2023-01-20T22:16:46.218Z,17.50
2023-01-20T22:19:13.791Z,13.57
2023-01-20T22:21:40.974Z,11.73
2023-01-20T22:24:08.225Z,15.73
2023-01-20T22:26:35.372Z,12.87
2023-01-20T22:29:02.548Z,11.53
2023-01-20T22:31:31.281Z,9.93
2023-01-20T22:33:58.737Z,10.17
2023-01-20T22:36:26.042Z,12.13
2023-01-20T22:38:53.438Z,11.43
2023-01-20T22:41:20.755Z,9.60
2023-01-20T22:43:48.229Z,13.53
2023-01-20T22:46:16.138Z,13.50
2023-01-20T22:48:43.360Z,11.23
2023-01-20T22:51:11.377Z,13.43
2023-01-20T22:53:39.324Z,16.93
2023-01-20T22:56:13.573Z,15.37
2023-01-20T22:58:40.940Z,15.93
2023-01-20T23:01:14.371Z,16.10
2023-01-20T23:03:41.818Z,13.80
2023-01-20T23:06:09.026Z,19.43
2023-01-20T23:08:36.198Z,14.30
2023-01-20T23:11:05.297Z,12.57
2023-01-20T23:13:32.448Z,11.17
2023-01-20T23:15:59.585Z,10.70
2023-01-20T23:18:26.807Z,12.20
2023-01-20T23:20:54.412Z,7.57
2023-01-20T23:23:21.811Z,7.80
2023-01-20T23:25:49.059Z,7.03
2023-01-20T23:28:16.234Z,7.53
2023-01-20T23:30:43.590Z,9.03
2023-01-20T23:33:10.816Z,10.20
2023-01-20T23:35:40.832Z,8.13
2023-01-20T23:38:07.994Z,6.57
2023-01-20T23:40:35.688Z,7.00
2023-01-20T23:43:03.173Z,7.23
2023-01-20T23:45:30.461Z,8.67
2023-01-20T23:47:57.697Z,7.57
2023-01-20T23:50:24.953Z,7.27
2023-01-20T23:52:52.122Z,7.50
2023-01-20T23:55:19.303Z,7.70
2023-01-20T23:57:46.448Z,7.43
